This is the latest recevied weather packets stored in our database for station/object VK2KGV-15. If no packets are shown the sender has not sent any weather packets the latest 10 day(s).
| Time | Temp. | Humidity | Pressure | Rain* | Wind** | Luminosity | Snow |
|---|---|---|---|---|---|---|---|
| 1777695105 | 25° C | 36% | 1019.5 hPa | 0 mm | - | - | - |
| 1777692090 | 24.44° C | 40% | 1020.1 hPa | 0 mm | - | - | - |
| 1777690883 | 24.44° C | 40% | 1020.3 hPa | 0 mm | - | - | - |
| 1777689677 | 24.44° C | 39% | 1020.6 hPa | 0 mm | - | - | - |
| 1777687868 | 23.89° C | 41% | 1020.9 hPa | 0 mm | - | - | - |
| 1777686662 | 23.89° C | 41% | 1021.2 hPa | 0 mm | - | - | - |
| 1777679424 | 21.11° C | 53% | 1023.1 hPa | 0 mm | - | - | - |
| 1777675202 | 20.56° C | 58% | 1023 hPa | 0 mm | - | - | - |
| 1777673393 | 19.44° C | 62% | 1023.2 hPa | 0 mm | - | - | - |
| 1777670980 | 17.78° C | 72% | 1023 hPa | 0 mm | - | - | - |
| 1777668568 | 15° C | 79% | 1023.2 hPa | 0 mm | - | - | - |
| 1777664949 | 15° C | 83% | 1022.9 hPa | 0 mm | - | - | - |
| 1777663140 | 12.22° C | 81% | 1023.2 hPa | 0 mm | - | - | - |
| 1777657712 | 16.67° C | 74% | 1022.6 hPa | 0 mm | - | - | - |
| 1777656506 | 16.67° C | 74% | 1022.7 hPa | 0 mm | - | - | - |
| 1777654697 | 16.67° C | 75% | 1022.9 hPa | 0 mm | - | - | - |
| 1777654093 | 16.67° C | 76% | 1022.7 hPa | 0 mm | - | - | - |
| 1777651681 | 14.44° C | 84% | 1023.2 hPa | 0 mm | - | - | - |
| 1777650475 | 14.44° C | 83% | 1023.3 hPa | 0 mm | - | - | - |
| 1777644444 | 15° C | 78% | 1024.1 hPa | 0 mm | - | - | - |
| 1777642031 | 15.56° C | 77% | 1024.2 hPa | 0 mm | - | - | - |
| 1777641428 | 15.56° C | 76% | 1024.2 hPa | 0 mm | - | - | - |
| 1777638413 | 16.11° C | 69% | 1024.2 hPa | 0 mm | - | - | - |
| 1777637810 | 16.67° C | 69% | 1024.2 hPa | 0 mm | - | - | - |
| 1777637206 | 17.22° C | 70% | 1024.4 hPa | 0 mm | - | - | - |
* Rain since midnight (hover to see other rain measurements)
** Current wind speed in m/s (hover to see current wind gust speed)